YGCL weather

Gold Coast Life Saver Base
Carrara Gold Coast, Queensland, Australia

Public forecast

Using degrees Celsius for public forecast. Weather courtesy of forecast.io.

Closest aviation weather report (METAR) to Gold Coast Life Saver Base

Closest report is Gold Coast Airport, 12.3 nm (22.7 km) SE. Retrieved 2020/03/31 22:30 UTC (11 minutes ago):

YBCG 312230Z AUTO 19009KT 9999 // NCD 25/19 Q1018 RF000/0000

Closest aviation forecast (TAF) to Gold Coast Life Saver Base

Closest forecast is Gold Coast Airport, 12.3 nm (22.7 km) SE. Retrieved 2020/03/31 18:00 UTC (5 hours ago):

TAF YBCG 311722Z 3118/0118 22008KT 9999 -SHRA SCT020 FM010000 15012KT 9999 NSW FEW030 FM011200 19007KT 9999 -SHRA SCT020